Time,TemperatureF,DewpointF,PressureIn,WindDirection,WindDirectionDegrees,WindSpeedMPH,WindSpeedGustMPH,Humidity,HourlyPrecipIn,Conditions,Clouds,dailyrainin,SoftwareType,DateUTC
2013-03-30 00:08:00,69.8,23.0,29.94,SSE,164,3.0,7.0,17,0.00,,,0.00,weatherlink.com 1.10,2013-03-30 07:08:00,
2013-03-30 00:23:00,68.9,24.0,29.94,ESE,111,4.0,7.0,18,0.00,,,0.00,weatherlink.com 1.10,2013-03-30 07:23:00,
2013-03-30 00:38:00,68.5,23.0,29.94,ESE,117,3.0,8.0,18,0.00,,,0.00,weatherlink.com 1.10,2013-03-30 07:38:00,
2013-03-30 00:53:00,68.3,24.0,29.94,ESE,117,3.0,5.0,19,0.00,,,0.00,weatherlink.com 1.10,2013-03-30 07:53:00,
2013-03-30 01:08:00,68.0,24.0,29.94,ESE,117,5.0,7.0,19,0.00,,,0.00,weatherlink.com 1.10,2013-03-30 08:08:00,
2013-03-30 01:23:00,67.6,24.0,29.94,ESE,117,4.0,7.0,19,0.00,,,0.00,weatherlink.com 1.10,2013-03-30 08:23:00,
2013-03-30 01:38:00,67.8,24.0,29.94,SE,128,4.0,6.0,19,0.00,,,0.00,weatherlink.com 1.10,2013-03-30 08:38:00,
2013-03-30 01:53:00,67.8,24.0,29.94,SE,128,3.0,7.0,19,0.00,,,0.00,weatherlink.com 1.10,2013-03-30 08:53:00,
2013-03-30 02:08:00,67.7,24.0,29.93,SE,128,4.0,5.0,19,0.00,,,0.00,weatherlink.com 1.10,2013-03-30 09:08:00,
2013-03-30 02:23:00,67.1,25.0,29.94,SE,128,1.0,3.0,20,0.00,,,0.00,weatherlink.com 1.10,2013-03-30 09:23:00,
2013-03-30 02:38:00,67.0,25.0,29.93,SE,128,0.0,2.0,20,0.00,,,0.00,weatherlink.com 1.10,2013-03-30 09:38:00,
2013-03-30 02:53:00,65.1,24.0,29.93,SE,128,0.0,0.0,21,0.00,,,0.00,weatherlink.com 1.10,2013-03-30 09:53:00,
2013-03-30 03:08:00,64.6,25.0,29.93,SE,128,0.0,0.0,22,0.00,,,0.00,weatherlink.com 1.10,2013-03-30 10:08:00,
2013-03-30 03:23:00,65.0,25.0,29.93,SE,128,0.0,0.0,22,0.00,,,0.00,weatherlink.com 1.10,2013-03-30 10:23:00,
2013-03-30 03:38:00,64.9,25.0,29.93,SE,128,0.0,0.0,22,0.00,,,0.00,weatherlink.com 1.10,2013-03-30 10:38:00,
2013-03-30 03:54:00,64.1,25.0,29.93,SE,128,2.0,3.0,23,0.00,,,0.00,weatherlink.com 1.10,2013-03-30 10:54:00,
2013-03-30 04:09:00,64.4,26.0,29.93,SE,128,2.0,3.0,23,0.00,,,0.00,weatherlink.com 1.10,2013-03-30 11:09:00,
2013-03-30 04:24:00,64.7,26.0,29.93,SE,128,2.0,4.0,23,0.00,,,0.00,weatherlink.com 1.10,2013-03-30 11:24:00,
2013-03-30 04:39:00,64.5,26.0,29.92,SE,128,2.0,4.0,23,0.00,,,0.00,weatherlink.com 1.10,2013-03-30 11:39:00,
2013-03-30 04:54:00,64.4,26.0,29.93,SE,128,3.0,4.0,23,0.00,,,0.00,weatherlink.com 1.10,2013-03-30 11:54:00,
2013-03-30 05:09:00,63.5,26.0,29.93,SE,128,0.0,3.0,24,0.00,,,0.00,weatherlink.com 1.10,2013-03-30 12:09:00,
2013-03-30 05:24:00,64.0,26.0,29.93,SE,128,1.0,4.0,24,0.00,,,0.00,weatherlink.com 1.10,2013-03-30 12:24:00,
2013-03-30 05:39:00,64.4,26.0,29.93,SE,129,3.0,3.0,23,0.00,,,0.00,weatherlink.com 1.10,2013-03-30 12:39:00,
2013-03-30 05:54:00,64.8,26.0,29.93,SE,129,3.0,4.0,23,0.00,,,0.00,weatherlink.com 1.10,2013-03-30 12:54:00,
2013-03-30 06:09:00,64.4,26.0,29.94,SE,129,3.0,4.0,23,0.00,,,0.00,weatherlink.com 1.10,2013-03-30 13:09:00,
2013-03-30 06:24:00,64.2,27.0,29.94,SE,129,4.0,5.0,24,0.00,,,0.00,weatherlink.com 1.10,2013-03-30 13:24:00,
2013-03-30 06:39:00,64.2,27.0,29.94,SSW,200,2.0,3.0,24,0.00,,,0.00,weatherlink.com 1.10,2013-03-30 13:39:00,
2013-03-30 06:54:00,64.7,27.0,29.95,SSE,160,1.0,4.0,24,0.00,,,0.00,weatherlink.com 1.10,2013-03-30 13:54:00,
2013-03-30 07:09:00,65.0,27.0,29.95,SSW,209,2.0,3.0,24,0.00,,,0.00,weatherlink.com 1.10,2013-03-30 14:09:00,
2013-03-30 07:24:00,66.0,27.0,29.95,SSW,209,0.0,2.0,23,0.00,,,0.00,weatherlink.com 1.10,2013-03-30 14:24:00,
2013-03-30 07:39:00,65.8,29.0,29.95,SSW,209,0.0,2.0,25,0.00,,,0.00,weatherlink.com 1.10,2013-03-30 14:39:00,
2013-03-30 07:54:00,66.0,29.0,29.95,SSW,207,0.0,0.0,25,0.00,,,0.00,weatherlink.com 1.10,2013-03-30 14:54:00,
2013-03-30 08:09:00,66.4,31.0,29.96,WSW,248,0.0,0.0,27,0.00,,,0.00,weatherlink.com 1.10,2013-03-30 15:09:00,
2013-03-30 08:24:00,65.7,34.0,29.96,WSW,246,0.0,1.0,31,0.00,,,0.00,weatherlink.com 1.10,2013-03-30 15:24:00,
2013-03-30 08:39:00,65.2,31.0,29.96,WSW,246,0.0,0.0,28,0.00,,,0.00,weatherlink.com 1.10,2013-03-30 15:39:00,
2013-03-30 08:54:00,66.4,31.0,29.96,WSW,246,0.0,0.0,27,0.00,,,0.00,weatherlink.com 1.10,2013-03-30 15:54:00,
2013-03-30 09:09:00,68.1,31.0,29.97,SSW,192,0.0,0.0,25,0.00,,,0.00,weatherlink.com 1.10,2013-03-30 16:09:00,
2013-03-30 09:24:00,68.3,29.0,29.97,SSW,192,1.0,2.0,23,0.00,,,0.00,weatherlink.com 1.10,2013-03-30 16:24:00,
2013-03-30 09:39:00,68.4,30.0,29.97,SSW,192,1.0,2.0,24,0.00,,,0.00,weatherlink.com 1.10,2013-03-30 16:39:00,
2013-03-30 09:54:00,68.8,31.0,29.97,SSW,192,1.0,4.0,25,0.00,,,0.00,weatherlink.com 1.10,2013-03-30 16:54:00,
2013-03-30 10:09:00,69.4,32.0,29.97,SSW,192,0.0,1.0,25,0.00,,,0.00,weatherlink.com 1.10,2013-03-30 17:09:00,
2013-03-30 10:24:00,69.7,31.0,29.97,SSW,192,0.0,3.0,24,0.00,,,0.00,weatherlink.com 1.10,2013-03-30 17:24:00,
2013-03-30 10:39:00,70.6,31.0,29.97,SSW,192,0.0,3.0,23,0.00,,,0.00,weatherlink.com 1.10,2013-03-30 17:39:00,
2013-03-30 10:54:00,70.5,31.0,29.97,SSW,194,3.0,5.0,23,0.00,,,0.00,weatherlink.com 1.10,2013-03-30 17:54:00,
2013-03-30 11:09:00,70.5,31.0,29.97,West,261,6.0,7.0,23,0.00,,,0.00,weatherlink.com 1.10,2013-03-30 18:09:00,
2013-03-30 11:24:00,71.6,31.0,29.97,West,262,3.0,8.0,22,0.00,,,0.00,weatherlink.com 1.10,2013-03-30 18:24:00,
2013-03-30 11:39:00,72.0,31.0,29.96,West,263,2.0,6.0,22,0.00,,,0.00,weatherlink.com 1.10,2013-03-30 18:39:00,
2013-03-30 11:54:00,71.9,31.0,29.96,West,263,5.0,7.0,22,0.00,,,0.00,weatherlink.com 1.10,2013-03-30 18:54:00,
2013-03-30 12:09:00,71.6,32.0,29.95,West,263,5.0,7.0,23,0.00,,,0.00,weatherlink.com 1.10,2013-03-30 19:09:00,
2013-03-30 12:24:00,73.7,32.0,29.95,NNE,16,4.0,7.0,22,0.00,,,0.00,weatherlink.com 1.10,2013-03-30 19:24:00,
2013-03-30 12:39:00,73.9,32.0,29.94,North,9,5.0,8.0,21,0.00,,,0.00,weatherlink.com 1.10,2013-03-30 19:39:00,
2013-03-30 12:54:00,76.0,33.0,29.94,NNE,19,0.0,7.0,21,0.00,,,0.00,weatherlink.com 1.10,2013-03-30 19:54:00,
2013-03-30 13:09:00,76.5,33.0,29.93,NE,46,2.0,7.0,20,0.00,,,0.00,weatherlink.com 1.10,2013-03-30 20:09:00,
2013-03-30 13:24:00,76.5,31.0,29.93,NNE,15,1.0,8.0,19,0.00,,,0.00,weatherlink.com 1.10,2013-03-30 20:24:00,
2013-03-30 13:39:00,76.9,30.0,29.92,NNE,33,3.0,7.0,18,0.00,,,0.00,weatherlink.com 1.10,2013-03-30 20:39:00,
2013-03-30 13:54:00,76.8,33.0,29.91,NE,51,3.0,6.0,20,0.00,,,0.00,weatherlink.com 1.10,2013-03-30 20:54:00,
2013-03-30 14:09:00,77.0,30.0,29.91,North,5,9.0,12.0,18,0.00,,,0.00,weatherlink.com 1.10,2013-03-30 21:09:00,
2013-03-30 14:26:00,79.6,30.0,29.90,ENE,63,1.0,8.0,16,0.00,,,0.00,weatherlink.com 1.10,2013-03-30 21:26:00,
2013-03-30 14:39:00,80.4,32.0,29.89,NW,306,4.0,7.0,17,0.00,,,0.00,weatherlink.com 1.10,2013-03-30 21:39:00,
2013-03-30 14:54:00,79.2,29.0,29.89,WNW,299,2.0,8.0,16,0.00,,,0.00,weatherlink.com 1.10,2013-03-30 21:54:00,
2013-03-30 15:09:00,79.5,29.0,29.88,West,264,0.0,7.0,16,0.00,,,0.00,weatherlink.com 1.10,2013-03-30 22:09:00,
2013-03-30 15:24:00,78.1,28.0,29.88,NNW,344,4.0,8.0,16,0.00,,,0.00,weatherlink.com 1.10,2013-03-30 22:24:00,
2013-03-30 15:39:00,78.0,28.0,29.87,SSE,165,3.0,9.0,16,0.00,,,0.00,weatherlink.com 1.10,2013-03-30 22:39:00,
2013-03-30 15:54:00,77.3,29.0,29.87,West,266,3.0,7.0,17,0.00,,,0.00,weatherlink.com 1.10,2013-03-30 22:54:00,
2013-03-30 16:09:00,77.7,29.0,29.86,West,261,2.0,5.0,17,0.00,,,0.00,weatherlink.com 1.10,2013-03-30 23:09:00,
2013-03-30 16:24:00,77.5,29.0,29.86,West,260,2.0,5.0,17,0.00,,,0.00,weatherlink.com 1.10,2013-03-30 23:24:00,
2013-03-30 16:39:00,77.0,30.0,29.86,West,261,1.0,6.0,18,0.00,,,0.00,weatherlink.com 1.10,2013-03-30 23:39:00,
2013-03-30 16:54:00,76.8,31.0,29.85,NNE,19,7.0,8.0,19,0.00,,,0.00,weatherlink.com 1.10,2013-03-30 23:54:00,
2013-03-30 17:10:00,77.1,30.0,29.85,SSE,159,5.0,5.0,18,0.00,,,0.00,weatherlink.com 1.10,2013-03-31 00:10:00,
2013-03-30 17:25:00,77.3,29.0,29.85,SSE,155,0.0,3.0,17,0.00,,,0.00,weatherlink.com 1.10,2013-03-31 00:25:00,
2013-03-30 17:40:00,77.7,32.0,29.85,SSE,155,0.0,2.0,19,0.00,,,0.00,weatherlink.com 1.10,2013-03-31 00:40:00,
2013-03-30 17:55:00,79.1,31.0,29.85,SSE,155,0.0,0.0,17,0.00,,,0.00,weatherlink.com 1.10,2013-03-31 00:55:00,
2013-03-30 18:10:00,77.8,30.0,29.84,South,189,9.0,9.0,17,0.00,,,0.00,weatherlink.com 1.10,2013-03-31 01:10:00,
2013-03-30 18:25:00,76.5,30.0,29.84,SW,214,10.0,10.0,18,0.00,,,0.00,weatherlink.com 1.10,2013-03-31 01:25:00,
2013-03-30 18:40:00,75.8,31.0,29.84,SSW,196,4.0,7.0,19,0.00,,,0.00,weatherlink.com 1.10,2013-03-31 01:40:00,
2013-03-30 18:55:00,75.4,30.0,29.84,South,169,4.0,8.0,19,0.00,,,0.00,weatherlink.com 1.10,2013-03-31 01:55:00,
2013-03-30 19:10:00,75.0,30.0,29.85,SSE,168,1.0,4.0,19,0.00,,,0.00,weatherlink.com 1.10,2013-03-31 02:10:00,
2013-03-30 19:25:00,74.4,31.0,29.85,SSE,164,2.0,4.0,20,0.00,,,0.00,weatherlink.com 1.10,2013-03-31 02:25:00,
2013-03-30 19:40:00,73.6,30.0,29.85,SSE,159,4.0,4.0,20,0.00,,,0.00,weatherlink.com 1.10,2013-03-31 02:40:00,
2013-03-30 19:55:00,73.2,30.0,29.85,SSE,159,2.0,4.0,20,0.00,,,0.00,weatherlink.com 1.10,2013-03-31 02:55:00,
2013-03-30 20:10:00,72.6,30.0,29.86,SSE,159,2.0,4.0,21,0.00,,,0.00,weatherlink.com 1.10,2013-03-31 03:10:00,
2013-03-30 20:25:00,72.1,30.0,29.86,SSE,159,2.0,4.0,21,0.00,,,0.00,weatherlink.com 1.10,2013-03-31 03:25:00,
2013-03-30 20:40:00,71.8,31.0,29.86,SSE,150,3.0,5.0,22,0.00,,,0.00,weatherlink.com 1.10,2013-03-31 03:40:00,
2013-03-30 20:55:00,71.4,31.0,29.86,SE,127,4.0,5.0,22,0.00,,,0.00,weatherlink.com 1.10,2013-03-31 03:55:00,
2013-03-30 21:10:00,71.1,30.0,29.86,SE,128,3.0,5.0,22,0.00,,,0.00,weatherlink.com 1.10,2013-03-31 04:10:00,
2013-03-30 21:25:00,71.1,30.0,29.87,SE,128,2.0,6.0,22,0.00,,,0.00,weatherlink.com 1.10,2013-03-31 04:25:00,
2013-03-30 21:40:00,70.3,31.0,29.86,SE,128,3.0,5.0,23,0.00,,,0.00,weatherlink.com 1.10,2013-03-31 04:40:00,
2013-03-30 21:55:00,69.3,31.0,29.87,SE,128,2.0,4.0,24,0.00,,,0.00,weatherlink.com 1.10,2013-03-31 04:55:00,
2013-03-30 22:10:00,69.1,31.0,29.87,SE,139,5.0,6.0,24,0.00,,,0.00,weatherlink.com 1.10,2013-03-31 05:10:00,
2013-03-30 22:25:00,69.7,30.0,29.86,SE,132,5.0,7.0,23,0.00,,,0.00,weatherlink.com 1.10,2013-03-31 05:25:00,
2013-03-30 22:40:00,70.0,30.0,29.86,SE,134,3.0,6.0,23,0.00,,,0.00,weatherlink.com 1.10,2013-03-31 05:40:00,
2013-03-30 22:55:00,70.0,30.0,29.86,SE,125,3.0,7.0,23,0.00,,,0.00,weatherlink.com 1.10,2013-03-31 05:55:00,
2013-03-30 23:10:00,69.8,30.0,29.86,ESE,123,7.0,7.0,23,0.00,,,0.00,weatherlink.com 1.10,2013-03-31 06:10:00,
2013-03-30 23:25:00,69.6,30.0,29.86,ESE,123,3.0,8.0,23,0.00,,,0.00,weatherlink.com 1.10,2013-03-31 06:25:00,
2013-03-30 23:40:00,69.6,31.0,29.86,ESE,122,2.0,5.0,24,0.00,,,0.00,weatherlink.com 1.10,2013-03-31 06:40:00,
2013-03-30 23:55:00,68.0,30.0,29.86,ESE,123,3.0,5.0,24,0.00,,,0.00,weatherlink.com 1.10,2013-03-31 06:55:00,